^^

Nearby METAR Reports

 

LIRH - Frosinone (it-Af, Italy
Distance from station: SO 5km
Dati ricevuti: 25/11/2022 18:55
Non Attivo
Pioviggine, Mist, Parz. nuvoloso
Pioviggine, Mist, Parz. nuvoloso
 Vento da NE
Vento: NE 7 km/h
Temperatura: 11°C
P.to Rugiada: 10°C
Umidità: 94%
Barometro: 1018 hPa
Summary: Pioviggine, Mist
Clouds: Parz. nuvoloso
Visibility: 4 km
Cloud details: Parz. nuvoloso 914 m
2022/11/25 17:55 LIRH 251755Z 04004KT 4000 -RA BR SCT030 11/10 Q1018
LIRL - Latina (it-Afb), Italy
Distance from station: OSO 40km
Dati ricevuti: 25/11/2022 18:55
Non Attivo
Pioviggine, Nuvoloso
Pioviggine, Nuvoloso
 Vento da E
Vento: E 4 km/h
Temperatura: 13°C
P.to Rugiada: 12°C
Umidità: 94%
Barometro: 1018 hPa
Summary: Pioviggine
Clouds: Molto nuvoloso
Visibility: 8 km
Cloud details: Parz. nuvoloso 610 m
Molto nuvoloso 1219 m
2022/11/25 17:55 LIRL 251755Z 09002KT 8000 -RA SCT020 BKN040 13/12 Q1018
 
LIRG - Guidonia (it-Afb, Italy
Distance from station: NO 63km
Dati ricevuti: 25/11/2022 18:55
Non Attivo
Molto nuvoloso
Molto nuvoloso
 Vento da SSE
Vento: SSE 7 km/h
Temperatura: 12°C
P.to Rugiada: 10°C
Umidità: 88%
Barometro: 1017 hPa
Clouds: Molto nuvoloso
Visibility: 10 km
Cloud details: Parz. nuvoloso 610 m
Molto nuvoloso 914 m
2022/11/25 17:55 LIRG 251755Z 15004KT 120V180 9999 SCT020 BKN030 12/10 Q1017
LIRA - Ciampino(It-Afb/, Italy
Distance from station: ONO 64km
Dati ricevuti: 26/11/2022 12:20
Molto nuvoloso
Molto nuvoloso
 Vento da ENE
Vento: ENE 17 km/h
Temperatura: 14°C
P.to Rugiada: 5°C
Umidità: 55%
Barometro: 1015 hPa
Clouds: Molto nuvoloso
Visibility: 10 km
Cloud details: Molto nuvoloso 2134 m
2022/11/26 11:20 LIRA 261120Z 07009KT 9999 BKN070 14/05 Q1015
 
LIRU - Roma/Urbe (it-Af, Italy
Distance from station: ONO 76km
Dati ricevuti: 26/11/2022 11:50
Parz. nuvoloso
Parz. nuvoloso
 Vento da varies
Vento: varies 4 km/h
Temperatura: 14°C
P.to Rugiada: 9°C
Umidità: 72%
Barometro: 1015 hPa
Clouds: Parz. nuvoloso
Visibility: 10 km
Cloud details: Parz. nuvoloso 1219 m
2022/11/26 10:50 LIRU 261050Z VRB02KT 9999 SCT040 14/09 Q1015
LIRE - Pratica Di Mare(, Italy
Distance from station: O 77km
Dati ricevuti: 26/11/2022 11:55
Molto nuvoloso
Molto nuvoloso
 Vento da N
Vento: N 15 km/h
Temperatura: 15°C
P.to Rugiada: 8°C
Umidità: 63%
Barometro: 1014 hPa
Clouds: Molto nuvoloso
Visibility: 10 km
Cloud details: Parz. nuvoloso 762 m
Molto nuvoloso 1524 m
2022/11/26 10:55 LIRE 261055Z 36008KT 9999 SCT025 BKN050 15/08 Q1014
 
LIQN - Rieti, Italy
Distance from station: NNO 92km
Dati ricevuti: 26/11/2022 11:50
Sereno
Sereno
 Vento da SE
Vento: SE 26 km/h
Temperatura: 12°C
P.to Rugiada: 3°C
Umidità: 54%
Barometro: 1017 hPa
Summary: Sereno
Visibility: greater than 10 km
2022/11/26 10:50 LIQN 261050Z 14014KT CAVOK 12/03 Q1017
LIRK - Terminillo, Italy
Distance from station: NNO 93km
Dati ricevuti: 26/11/2022 11:55

 Vento da varies
Vento: varies 0 km/h
2022/11/26 10:55 LIRK 261055Z AUTO /////KT //// ///// Q////
 
LIRF - Roma/Fiumicino, Italy
Distance from station: O 94km
Dati ricevuti: 26/11/2022 12:20
Sereno
Sereno
 Vento da NE
Vento: NE 11 km/h
Temperatura: 14°C
P.to Rugiada: 9°C
Umidità: 72%
Barometro: 1015 hPa
Summary: Sereno
Visibility: greater than 10 km
2022/11/26 11:20 LIRF 261120Z 05006KT CAVOK 14/09 Q1015 NOSIG
LIRM - Grazzanise (it-A, Italy
Distance from station: SE 94km
Dati ricevuti: 26/11/2022 11:55
Pioviggine, Nuvoloso
Pioviggine, Nuvoloso
 Vento da N
Vento: N 39 km/h
Temperatura: 10°C
Temperatura del Vento: 6°C
P.to Rugiada: 5°C
Umidità: 71%
Barometro: 1016 hPa
Summary: Pioviggine
Clouds: Molto nuvoloso
Visibility: 7 km
Cloud details: Parz. nuvoloso 610 m
Molto nuvoloso 1829 m
2022/11/26 10:55 LIRM 261055Z 01021KT 7000 -RA SCT020 BKN060 10/05 Q1016
 
LIBP - Pescara, Italy
Distance from station: NE 108km
Dati ricevuti: 26/11/2022 12:20
Molto nuvoloso
Molto nuvoloso
 Vento da ONO
Vento: ONO 7 km/h
Temperatura: 11°C
P.to Rugiada: 9°C
Umidità: 88%
Barometro: 1022 hPa
Clouds: Molto nuvoloso
Visibility: 10 km
Cloud details: Molto nuvoloso 2743 m
2022/11/26 11:20 LIBP 261120Z AUTO 29004KT 9999 BKN090/// 11/09 Q1022
LIRN - Napoli/Capodichino, Italy
Distance from station: SE 120km
Dati ricevuti: 26/11/2022 12:20
Pioggia, Nuvoloso
Pioggia, Nuvoloso
 Vento da NNE
Vento: NNE 22 km/h
Temperatura: 9°C
Temperatura del Vento: 6°C
P.to Rugiada: 7°C
Umidità: 87%
Barometro: 1014 hPa
Summary: Pioggia
Clouds: Molto nuvoloso
Visibility: 4 km
Cloud details: Few Clouds 305 m
Molto nuvoloso 1219 m
2022/11/26 11:20 LIRN 261120Z 02012KT 4000 RA FEW010 BKN040 09/07 Q1014 NOSIG
 
LIRV - Viterbo (it-Mil), Italy
Distance from station: NO 133km
Dati ricevuti: 26/11/2022 11:55
Sereno
Sereno
 Vento da NNE
Vento: NNE 30 km/h
Temperatura: 14°C
P.to Rugiada: 1°C
Umidità: 41%
Barometro: 1016 hPa
Summary: Sereno
Visibility: greater than 10 km
2022/11/26 10:55 LIRV 261055Z 03016KT CAVOK 14/01 Q1016
LIQC - Capri, Italy
Distance from station: SSE 145km
Dati ricevuti: 26/11/2022 11:55
Pioggia intensa, Nuvoloso
Pioggia intensa, Nuvoloso
 Vento da E
Vento: E 15 km/h
Temperatura: 12°C
P.to Rugiada: 11°C
Umidità: 94%
Barometro: 1012 hPa
Summary: Pioggia intensa
Clouds: Molto nuvoloso
Visibility: 4 km
Cloud details: Parz. nuvoloso 457 m
Molto nuvoloso 610 m
2022/11/26 10:55 LIQC 261055Z 09008KT 4000 +RA SCT015TCU BKN020 12/11 Q1012 RMK OVC QUK 3 QUL 1 E VIS MAR 4 KM VIS MIN 4000
 
LIRT - Trevico, Italy
Distance from station: ESE 172km
Dati ricevuti: 26/11/2022 11:55
Nebbia
Nebbia
 Vento da SE
Vento: SE 24 km/h
Temperatura: 2°C
Temperatura del Vento: -3°C
P.to Rugiada: 0°C
Umidità: 87%
Barometro: 1015 hPa
Summary: Nebbia
Visibility: 0 km
2022/11/26 10:55 LIRT 261055Z 13013KT 0000 FG VV/// 02/00 Q1015
LIRZ - Perugia, Italy
Distance from station: NNO 172km
Dati ricevuti: 26/11/2022 12:20
Molto nuvoloso
Molto nuvoloso
 Vento da E
Vento: E 24 km/h
Temperatura: 13°C
P.to Rugiada: 5°C
Umidità: 59%
Barometro: 1020 hPa
Clouds: Molto nuvoloso
Visibility: 10 km
Cloud details: Molto nuvoloso 1798 m
2022/11/26 11:20 LIRZ 261120Z AUTO 08013KT 040V110 9999 BKN059/// 13/05 Q1020
 
LIRI - Pontecagnano (af, Italy
Distance from station: SE 177km
Dati ricevuti: 26/11/2022 11:50
Pioggia, Nuvoloso
Pioggia, Nuvoloso
 Vento da ENE
Vento: ENE 11 km/h
Temperatura: 13°C
P.to Rugiada: 10°C
Umidità: 82%
Barometro: 1014 hPa
Summary: Pioggia
Clouds: Molto nuvoloso
Visibility: 5 km
Cloud details: Molto nuvoloso 1067 m
2022/11/26 10:50 LIRI 261050Z 07006KT 030V090 5000 RA BKN035 13/10 Q1014
LIBF - Foggia/Gino Lisa, Italy
Distance from station: E 183km
Dati ricevuti: 26/11/2022 11:50
Pioviggine, Nuvoloso
Pioviggine, Nuvoloso
 Vento da NO
Vento: NO 13 km/h
Temperatura: 9°C
Temperatura del Vento: 7°C
P.to Rugiada: 8°C
Umidità: 94%
Barometro: 1020 hPa
Summary: Pioviggine
Clouds: Molto nuvoloso
Visibility: 10 km
Cloud details: Few Clouds 1219 m
Molto nuvoloso 1829 m
2022/11/26 10:50 LIBF 261050Z 31007KT 9999 -RA FEW040 BKN060 09/08 Q1020
 
LIQO - Monte Argentario, Italy
Distance from station: ONO 195km
Dati ricevuti: 09/11/2022 09:55
Non Attivo

 Vento da varies
Vento: varies 0 km/h
2022/11/09 08:55 LIQO 090855Z AUTO /////KT //// ///// Q////
LIBA - Amendola (it-Afb, Italy
Distance from station: E 198km
Dati ricevuti: 26/11/2022 11:55
Pioviggine, Nuvoloso
Pioviggine, Nuvoloso
 Vento da ONO
Vento: ONO 19 km/h
Temperatura: 9°C
Temperatura del Vento: 6°C
P.to Rugiada: 8°C
Umidità: 94%
Barometro: 1019 hPa
Summary: Pioviggine
Clouds: Molto nuvoloso
Visibility: 6 km
Cloud details: Few Clouds 762 m
Parz. nuvoloso 1219 m
Molto nuvoloso 1829 m
2022/11/26 10:55 LIBA 261055Z 30010KT 6000 -RA FEW025CB SCT040 BKN060 09/08 Q1019
 
LIBN - Lecce (it-Afb), Italy
Dati ricevuti: 26/11/2022 11:55
Pioviggine, Nuvoloso
Pioviggine, Nuvoloso
 Vento da SE
Vento: SE 7 km/h
Temperatura: 12°C
P.to Rugiada: 8°C
Umidità: 77%
Barometro: 1018 hPa
Summary: Pioviggine
Clouds: Molto nuvoloso
Visibility: 10 km
Cloud details: Molto nuvoloso 1219 m
2022/11/26 10:55 LIBN 261055Z 13004KT 9999 -RA BKN040 12/08 Q1018
LIPY - Ancona-Falconara, Italy
Dati ricevuti: 26/11/2022 12:20
Molto nuvoloso
Molto nuvoloso
 Vento da E
Vento: E 22 km/h
Temperatura: 16°C
P.to Rugiada: 7°C
Umidità: 55%
Barometro: 1022 hPa
Clouds: Molto nuvoloso
Visibility: 10 km
Cloud details: Molto nuvoloso 4267 m
Molto nuvoloso 6096 m
2022/11/26 11:20 LIPY 261120Z AUTO 08012KT 9999 BKN140/// BKN200/// 16/07 Q1022
 
LICJ - Palermo-Punta Raisi, Italy
Dati ricevuti: 26/11/2022 12:20
Pioviggine, Nuvoloso
Pioviggine, Nuvoloso
 Vento da S
Vento: S 9 km/h
Temperatura: 16°C
P.to Rugiada: 13°C
Umidità: 83%
Barometro: 1011 hPa
Summary: Pioviggine
Clouds: Molto nuvoloso
Visibility: 10 km
Cloud details: Parz. nuvoloso 914 m
Molto nuvoloso 1829 m
2022/11/26 11:20 LICJ 261120Z 19005KT 9999 -RA SCT030 BKN060 16/13 Q1011
LIEB - Capo Bellavista, Italy
Dati ricevuti: 26/11/2022 11:55
Molto nuvoloso
Molto nuvoloso
 Vento da N
Vento: N 48 km/h, Raffica: 72 km/h
Temperatura: 13°C
P.to Rugiada: 8°C
Umidità: 72%
Barometro: 1015 hPa
Clouds: Molto nuvoloso
Visibility: 10 km
Cloud details: Parz. nuvoloso 1067 m
Molto nuvoloso 1524 m
2022/11/26 10:55 LIEB 261055Z 35026G39KT 9999 SCT035 BKN050 13/08 Q1015 RMK OVC QUK 4 QUL 3 N VIS MAR 20 KM MON NW CLD SCT VIS MIN 9999
 
LIEC - Capo Carbonara, Italy
Dati ricevuti: 26/11/2022 11:55
Pioviggine, Few clouds
Pioviggine, Few clouds
 Vento da NNO
Vento: NNO 15 km/h
Temperatura: 15°C
P.to Rugiada: 10°C
Umidità: 72%
Barometro: 1013 hPa
Summary: Pioviggine
Clouds: Few Clouds
Visibility: 10 km
Cloud details: Few Clouds 610 m
Parz. nuvoloso 701 m
Few Clouds 732 m
2022/11/26 10:55 LIEC 261055Z 33008KT 9999 -RA FEW020 SCT023 FEW024TCU 15/10 Q1013 RMK BKN QUK 3 QUL 0 VIS MAR 18 KM VIS MIN 9999
LIED - Cagliari-Decimomannu(It-A, Italy
Dati ricevuti: 26/11/2022 11:55
Few Clouds
Few Clouds
 Vento da NNO
Vento: NNO 26 km/h, Raffica: 44 km/h
Temperatura: 16°C
P.to Rugiada: 9°C
Umidità: 63%
Barometro: 1016 hPa
Clouds: Few Clouds
Visibility: 10 km
Cloud details: Few Clouds 610 m
2022/11/26 10:55 LIED 261055Z 34014G24KT 9999 FEW020 16/09 Q1016
 
LIEE - Cagliari-Elmas(A, Italy
Dati ricevuti: 26/11/2022 12:20
Few Clouds
Few Clouds
 Vento da N
Vento: N 39 km/h
Temperatura: 17°C
P.to Rugiada: 9°C
Umidità: 59%
Barometro: 1016 hPa
Clouds: Few Clouds
Visibility: 10 km
Cloud details: Few Clouds 1829 m
2022/11/26 11:20 LIEE 261120Z 35021KT 9999 FEW060 17/09 Q1016
LIEO - Olbia-Costa Smeralda, Italy
Dati ricevuti: 26/11/2022 12:20
Molto nuvoloso
Molto nuvoloso
 Vento da NNO
Vento: NNO 20 km/h
Temperatura: 15°C
P.to Rugiada: 10°C
Umidità: 72%
Barometro: 1018 hPa
Clouds: Molto nuvoloso
Visibility: 10 km
Cloud details: Molto nuvoloso 914 m
2022/11/26 11:20 LIEO 261120Z 34011KT 9999 BKN030 15/10 Q1018
 
LIEA - Alghero, Italy
Dati ricevuti: 26/11/2022 12:20
Few Clouds
Few Clouds
 Vento da N
Vento: N 17 km/h
Temperatura: 18°C
P.to Rugiada: 8°C
Umidità: 52%
Barometro: 1019 hPa
Clouds: Few Clouds
Visibility: 10 km
Cloud details: Few Clouds 1372 m
2022/11/26 11:20 LIEA 261120Z 01009KT 330V050 9999 FEW045 18/08 Q1019
LICA - Catanzaro-Lamezia Terme, Italy
Dati ricevuti: 26/11/2022 12:20
Pioviggine, Coperto
Pioviggine, Coperto
 Vento da ENE
Vento: ENE 20 km/h
Temperatura: 15°C
P.to Rugiada: 13°C
Umidità: 88%
Barometro: 1013 hPa
Summary: Pioviggine
Clouds: Coperto
Visibility: 10 km
Cloud details: Few Clouds 1006 m
Molto nuvoloso 2134 m
Coperto 2865 m
2022/11/26 11:20 LICA 261120Z AUTO 06011KT 9999 -RA FEW033/// BKN070/// OVC094/// 15/13 Q1013
 
LIBQ - Cosenza-Monte Scuro, Italy
Dati ricevuti: 26/11/2022 11:55
Pioviggine, Nuvoloso
Pioviggine, Nuvoloso
 Vento da ESE
Vento: ESE 11 km/h
Temperatura: 6°C
Temperatura del Vento: 4°C
P.to Rugiada: 3°C
Umidità: 81%
Barometro: 1016 hPa
Summary: Pioviggine
Clouds: Molto nuvoloso
Visibility: 10 km
Cloud details: Parz. nuvoloso 152 m
Molto nuvoloso 1524 m
2022/11/26 10:55 LIBQ 261055Z 12006KT 060V220 9999 -RA SCT005 BKN050 06/03 Q1016
LICR - Reggio Calabria, Italy
Dati ricevuti: 26/11/2022 12:20
Parz. nuvoloso
Parz. nuvoloso
 Vento da SE
Vento: SE 17 km/h
Temperatura: 17°C
P.to Rugiada: 8°C
Umidità: 56%
Barometro: 1013 hPa
Clouds: Parz. nuvoloso
Visibility: 10 km
Cloud details: Parz. nuvoloso 3658 m
2022/11/26 11:20 LICR 261120Z AUTO 14009KT 110V170 9999 SCT120/// 17/08 Q1013
 
LIBV - Bari-Gioia Del Colle, Italy
Dati ricevuti: 26/11/2022 11:55
Parz. nuvoloso
Parz. nuvoloso
 Vento da ENE
Vento: ENE 17 km/h
Temperatura: 12°C
P.to Rugiada: 7°C
Umidità: 72%
Barometro: 1016 hPa
Clouds: Parz. nuvoloso
Visibility: 10 km
Cloud details: Parz. nuvoloso 1219 m
2022/11/26 10:55 LIBV 261055Z 06009KT 9999 SCT040 12/07 Q1016
LIBD - Bari-Palese Macchie, Italy
Dati ricevuti: 26/11/2022 12:20
Parz. nuvoloso
Parz. nuvoloso
 Vento da E
Vento: E 20 km/h
Temperatura: 15°C
P.to Rugiada: 7°C
Umidità: 59%
Barometro: 1018 hPa
Clouds: Parz. nuvoloso
Visibility: 10 km
Cloud details: Parz. nuvoloso 1219 m
2022/11/26 11:20 LIBD 261120Z 09011KT 9999 SCT040 15/07 Q1018
 
LIBR - Brindisi-Casale, Italy
Dati ricevuti: 26/11/2022 12:20
Pioviggine, Parz. nuvoloso
Pioviggine, Parz. nuvoloso
 Vento da S
Vento: S 9 km/h
Temperatura: 16°C
P.to Rugiada: 7°C
Umidità: 55%
Barometro: 1018 hPa
Summary: Pioviggine
Clouds: Parz. nuvoloso
Visibility: 10 km
Cloud details: Few Clouds 457 m
Parz. nuvoloso 1372 m
2022/11/26 11:20 LIBR 261120Z 18005KT 9999 -RA FEW015 SCT045 16/07 Q1018
LIRT - Trevico, Italy
Dati ricevuti: 26/11/2022 11:55
Nebbia
Nebbia
 Vento da SE
Vento: SE 24 km/h
Temperatura: 2°C
Temperatura del Vento: -3°C
P.to Rugiada: 0°C
Umidità: 87%
Barometro: 1015 hPa
Summary: Nebbia
Visibility: 0 km
2022/11/26 10:55 LIRT 261055Z 13013KT 0000 FG VV/// 02/00 Q1015
 
LICB - Comiso, Italy
Dati ricevuti: 26/11/2022 12:20
Pioggia, Nuvoloso
Pioggia, Nuvoloso
 Vento da SE
Vento: SE 15 km/h
Temperatura: 14°C
P.to Rugiada: 13°C
Umidità: 94%
Barometro: 1012 hPa
Summary: Pioggia
Clouds: Molto nuvoloso
Visibility: 10 km
Cloud details: Molto nuvoloso 1006 m
2022/11/26 11:20 LICB 261120Z AUTO 14008KT 090V250 9999 RA BKN033/// 14/13 Q1012
LICL - Gela, Italy
Dati ricevuti: 26/11/2022 11:55
Pioggia, Parz. nuvoloso
Pioggia, Parz. nuvoloso
 Vento da SSO
Vento: SSO 13 km/h
Temperatura: 14°C
P.to Rugiada: 13°C
Umidità: 94%
Barometro: 1011 hPa
Summary: Pioggia
Clouds: Parz. nuvoloso
Visibility: 5 km
Cloud details: Few Clouds 640 m
Parz. nuvoloso 701 m
2022/11/26 10:55 LICL 261055Z 20007KT 5000 RA FEW021 SCT023 14/13 Q1011 RMK OVC OVC090 QUK 2 QUL 1 SW VIS MAR 5 KM VIS MIN 5000
 
LIBN - Lecce (it-Afb), Italy
Dati ricevuti: 26/11/2022 11:55
Pioviggine, Nuvoloso
Pioviggine, Nuvoloso
 Vento da SE
Vento: SE 7 km/h
Temperatura: 12°C
P.to Rugiada: 8°C
Umidità: 77%
Barometro: 1018 hPa
Summary: Pioviggine
Clouds: Molto nuvoloso
Visibility: 10 km
Cloud details: Molto nuvoloso 1219 m
2022/11/26 10:55 LIBN 261055Z 13004KT 9999 -RA BKN040 12/08 Q1018
LICJ - Palermo-Punta Raisi, Italy
Dati ricevuti: 26/11/2022 12:20
Pioviggine, Nuvoloso
Pioviggine, Nuvoloso
 Vento da S
Vento: S 9 km/h
Temperatura: 16°C
P.to Rugiada: 13°C
Umidità: 83%
Barometro: 1011 hPa
Summary: Pioviggine
Clouds: Molto nuvoloso
Visibility: 10 km
Cloud details: Parz. nuvoloso 914 m
Molto nuvoloso 1829 m
2022/11/26 11:20 LICJ 261120Z 19005KT 9999 -RA SCT030 BKN060 16/13 Q1011
 
LICZ - Catania-Sigonella (nas), Italy
Dati ricevuti: 26/11/2022 11:55
Pioviggine, Nuvoloso
Pioviggine, Nuvoloso
 Vento da varies
Vento: varies 0 km/h
Temperatura: 14°C
P.to Rugiada: 13°C
Umidità: 94%
Barometro: 1012 hPa
Summary: Pioviggine
Clouds: Molto nuvoloso
Visibility: 6 km
Cloud details: Parz. nuvoloso 457 m
Few Clouds 1219 m
Molto nuvoloso 2134 m
2022/11/26 10:55 LICZ 261055Z /////KT 6000 -RA SCT015 FEW040TCU BKN070 14/13 Q1012
LICC - Catania-Fontanarossa, Italy
Dati ricevuti: 26/11/2022 12:20
Pioviggine, Nuvoloso
Pioviggine, Nuvoloso
 Vento da E
Vento: E 15 km/h
Temperatura: 16°C
P.to Rugiada: 16°C
Umidità: 100%
Barometro: 1013 hPa
Summary: Pioviggine
Clouds: Molto nuvoloso
Visibility: 10 km
Cloud details: Parz. nuvoloso 610 m
Molto nuvoloso 1219 m
2022/11/26 11:20 LICC 261120Z 09008KT 070V130 9999 -RA SCT020 BKN040 16/16 Q1013
 
LICT - Trapani-Birgi (a, Italy
Dati ricevuti: 26/11/2022 12:16
Light thunderstorm, Pioggia, Parz. nuvoloso
Light thunderstorm, Pioggia, Parz. nuvoloso
 Vento da OSO
Vento: OSO 13 km/h
Temperatura: 16°C
P.to Rugiada: 15°C
Umidità: 94%
Barometro: 1011 hPa
Summary: Light thunderstorm, Pioggia
Clouds: Parz. nuvoloso
Visibility: 10 km
Cloud details: Few Clouds 457 m
Parz. nuvoloso 762 m
2022/11/26 11:16 LICT 261116Z 24007KT 190V360 9999 -TSRA FEW015CB SCT025 16/15 Q1011
LICD - Agrigento-Lampedusa, Italy
Dati ricevuti: 26/11/2022 12:20
Molto nuvoloso
Molto nuvoloso
 Vento da NO
Vento: NO 30 km/h
Temperatura: 18°C
P.to Rugiada: 13°C
Umidità: 73%
Barometro: 1013 hPa
Clouds: Molto nuvoloso
Visibility: 10 km
Cloud details: Few Clouds 701 m
Molto nuvoloso 2804 m
2022/11/26 11:20 LICD 261120Z AUTO 32016KT 9999 FEW023/// BKN092/// 18/13 Q1013
 
LICG - Pantelleria(It-A, Italy
Dati ricevuti: 26/11/2022 11:50
Parz. nuvoloso
Parz. nuvoloso
 Vento da ONO
Vento: ONO 26 km/h
Temperatura: 16°C
P.to Rugiada: 12°C
Umidità: 77%
Barometro: 1014 hPa
Clouds: Parz. nuvoloso
Visibility: 10 km
Cloud details: Parz. nuvoloso 305 m
Parz. nuvoloso 610 m
2022/11/26 10:50 LICG 261050Z 30014KT 9999 SCT010 SCT020 16/12 Q1014
LIPX - Villafranca(Cv/M, Italy
Dati ricevuti: 26/11/2022 12:20
Sereno
Sereno
 Vento da varies
Vento: varies 2 km/h
Temperatura: 14°C
P.to Rugiada: 4°C
Umidità: 51%
Barometro: 1026 hPa
Summary: Sereno
Visibility: greater than 10 km
2022/11/26 11:20 LIPX 261120Z VRB01KT CAVOK 14/04 Q1026
 
LIPO - Brescia/Montichiari, Italy
Dati ricevuti: 26/11/2022 12:20
Sereno
Sereno
 Vento da S
Vento: S 7 km/h
Temperatura: 13°C
P.to Rugiada: 6°C
Umidità: 63%
Barometro: 1026 hPa
Clouds: Sereno
Visibility: 10 km
2022/11/26 11:20 LIPO 261120Z AUTO 19004KT 9999 NCD 13/06 Q1026
LIPL - Ghedi (it-Afb), Italy
Dati ricevuti: 26/11/2022 11:55
Sereno
Sereno
 Vento da NO
Vento: NO 4 km/h
Temperatura: 9°C
P.to Rugiada: 5°C
Umidità: 76%
Barometro: 1025 hPa
Summary: Sereno
Visibility: greater than 10 km
2022/11/26 10:55 LIPL 261055Z 32002KT CAVOK 09/05 Q1025
 
LIMP - Parma, Italy
Dati ricevuti: 26/11/2022 12:35
Mist, Parz. nuvoloso
Mist, Parz. nuvoloso
 Vento da O
Vento: O 6 km/h
Temperatura: 8°C
P.to Rugiada: 8°C
Umidità: 100%
Barometro: 1026 hPa
Summary: Mist
Clouds: Parz. nuvoloso
Visibility: 3 km
2022/11/26 11:35 LIMP 261135Z 28003KT 240V330 2500 BR NSC 08/08 Q1026
LIMS - Piacenza (it-Afb, Italy
Dati ricevuti: 26/11/2022 11:55
Mist, Parz. nuvoloso
Mist, Parz. nuvoloso
 Vento da ENE
Vento: ENE 6 km/h
Temperatura: 10°C
P.to Rugiada: 10°C
Umidità: 100%
Barometro: 1025 hPa
Summary: Mist
Clouds: Parz. nuvoloso
Visibility: 5 km
2022/11/26 10:55 LIMS 261055Z 07003KT 4500 BR NSC 10/10 Q1025
 
LIPF - Ferrara (aut), Italy
Dati ricevuti: 26/11/2022 11:55
Parz. nuvoloso
Parz. nuvoloso
 Vento da O
Vento: O 9 km/h
Temperatura: 9°C
Temperatura del Vento: 7°C
P.to Rugiada: 6°C
Umidità: 82%
Barometro: 1025 hPa
Clouds: Parz. nuvoloso
Visibility: 8 km
Cloud details: Parz. nuvoloso 457 m
Parz. nuvoloso 2134 m
2022/11/26 10:55 LIPF 261055Z 27005KT 8000 SCT015 SCT070 09/06 Q1025
LIPE - Bologna/Borgo (a, Italy
Dati ricevuti: 26/11/2022 12:20
Mist, Parz. nuvoloso
Mist, Parz. nuvoloso
 Vento da O
Vento: O 20 km/h
Temperatura: 10°C
Temperatura del Vento: 7°C
P.to Rugiada: 7°C
Umidità: 82%
Barometro: 1026 hPa
Summary: Mist
Clouds: Parz. nuvoloso
Visibility: 5 km
Cloud details: Few Clouds 305 m
Parz. nuvoloso 1524 m
2022/11/26 11:20 LIPE 261120Z 28011KT 5000 BR FEW010 SCT050 10/07 Q1026
 
LIPU - Padova (civ/It-A, Italy
Dati ricevuti: 26/11/2022 11:50
Parz. nuvoloso
Parz. nuvoloso
 Vento da ENE
Vento: ENE 15 km/h
Temperatura: 14°C
P.to Rugiada: 5°C
Umidità: 55%
Barometro: 1026 hPa
Clouds: Parz. nuvoloso
Visibility: 10 km
Cloud details: Parz. nuvoloso 1219 m
2022/11/26 10:50 LIPU 261050Z 07008KT 9999 SCT040 14/05 Q1026
LIME - Bergamo/Orio Ser, Italy
Dati ricevuti: 26/11/2022 12:20
Sereno
Sereno
 Vento da OSO
Vento: OSO 9 km/h
Temperatura: 12°C
P.to Rugiada: 4°C
Umidità: 58%
Barometro: 1026 hPa
Summary: Sereno
Visibility: greater than 10 km
2022/11/26 11:20 LIME 261120Z 24005KT CAVOK 12/04 Q1026 NOSIG
 
LIMT - Cisa Pass, Italy
Dati ricevuti: 23/09/2019 13:55
Non Attivo
Nebbia
Nebbia
 Vento da calm
Vento: Calma
Temperatura: 10°C
P.to Rugiada: 10°C
Umidità: 100%
Barometro: 1014 hPa
Summary: Nebbia
Visibility: 0 km
2019/09/23 11:55 LIMT 231155Z 00000KT 0000 FG VV/// 10/10 Q1014 RMK MON INVIS VAL INVIS VIS MIN 0000
LIVC - Cimone Mountain, Italy
Dati ricevuti: 26/11/2022 11:55

 Vento da varies
Vento: varies 0 km/h
Temperatura: -2°C
P.to Rugiada: -2°C
Umidità: 100%
Barometro: 1021 hPa
2022/11/26 10:55 LIVC 261055Z AUTO /////KT //// M02/M02 Q1021
 
LIVP - Paganella Mounta, Italy
Dati ricevuti: 26/11/2022 11:55
Sereno
Sereno
 Vento da N
Vento: N 26 km/h
Temperatura: -4°C
Temperatura del Vento: -11°C
P.to Rugiada: -10°C
Umidità: 63%
Barometro: 1024 hPa
Summary: Sereno
Visibility: greater than 10 km
2022/11/26 10:55 LIVP 261055Z 35014KT CAVOK M04/M10 Q1024
LIML - Milano/Linate, Italy
Dati ricevuti: 26/11/2022 12:20
Parz. nuvoloso
Parz. nuvoloso
 Vento da O
Vento: O 7 km/h
Temperatura: 8°C
Temperatura del Vento: 7°C
P.to Rugiada: 6°C
Umidità: 87%
Barometro: 1027 hPa
Clouds: Parz. nuvoloso
Visibility: 7 km
2022/11/26 11:20 LIML 261120Z 26004KT 230V290 7000 NSC 08/06 Q1027 NOSIG
 
LIPS - Istrana (it-Afb), Italy
Dati ricevuti: 26/11/2022 11:55
Sereno
Sereno
 Vento da varies
Vento: varies 0 km/h
Temperatura: 13°C
P.to Rugiada: 2°C
Umidità: 47%
Barometro: 1026 hPa
Summary: Sereno
Visibility: greater than 10 km
2022/11/26 10:55 LIPS 261055Z /////KT CAVOK 13/02 Q1026
LIPH - Treviso(Civ/It-A, Italy
Dati ricevuti: 26/11/2022 12:20
Sereno
Sereno
 Vento da ENE
Vento: ENE 13 km/h
Temperatura: 14°C
P.to Rugiada: 3°C
Umidità: 48%
Barometro: 1026 hPa
Summary: Sereno
Visibility: greater than 10 km
2022/11/26 11:20 LIPH 261120Z 07007KT CAVOK 14/03 Q1026
 
LIPZ - Venezia/Tessera, Italy
Dati ricevuti: 26/11/2022 12:20
Sereno
Sereno
 Vento da ENE
Vento: ENE 15 km/h
Temperatura: 14°C
P.to Rugiada: 5°C
Umidità: 55%
Barometro: 1026 hPa
Summary: Sereno
Visibility: greater than 10 km
2022/11/26 11:20 LIPZ 261120Z 07008KT CAVOK 14/05 Q1026 NOSIG
LIQW - Sarzana/Luni, Italy
Dati ricevuti: 25/11/2022 13:55
Non Attivo
Pioviggine, Mist, Nuvoloso
Pioviggine, Mist, Nuvoloso
 Vento da ONO
Vento: ONO 9 km/h
Temperatura: 12°C
P.to Rugiada: 11°C
Umidità: 94%
Barometro: 1018 hPa
Summary: Pioviggine, Mist
Clouds: Molto nuvoloso
Visibility: 4 km
Cloud details: Parz. nuvoloso 305 m
Molto nuvoloso 1219 m
2022/11/25 12:55 LIQW 251255Z 30005KT 4000 -RA BR SCT010 BKN040 12/11 Q1018
 
LIVR - Rolle Pass, Italy
Dati ricevuti: 26/11/2022 11:55
Sereno
Sereno
 Vento da ONO
Vento: ONO 13 km/h
Temperatura: -2°C
Temperatura del Vento: -7°C
P.to Rugiada: -8°C
Umidità: 64%
Barometro: 1026 hPa
Summary: Sereno
Visibility: greater than 10 km
2022/11/26 10:55 LIVR 261055Z 29007KT CAVOK M02/M08 Q1026
LIPK - Forli (civ/It-Af, Italy
Dati ricevuti: 26/11/2022 11:50
Mist, Nuvoloso
Mist, Nuvoloso
 Vento da ONO
Vento: ONO 20 km/h
Temperatura: 10°C
Temperatura del Vento: 7°C
P.to Rugiada: 6°C
Umidità: 76%
Barometro: 1024 hPa
Summary: Mist
Clouds: Molto nuvoloso
Visibility: 5 km
Cloud details: Molto nuvoloso 914 m
2022/11/26 10:50 LIPK 261050Z 30011KT 5000 BR BKN030 10/06 Q1024
 
LIMV - Giovi Pass, Italy
Dati ricevuti: 26/11/2022 11:55
Sereno
Sereno
 Vento da varies
Vento: varies 0 km/h
Temperatura: 9°C
P.to Rugiada: 2°C
Umidità: 62%
Barometro: 1024 hPa
Summary: Sereno
Visibility: greater than 10 km
2022/11/26 10:55 LIMV 261055Z /////KT CAVOK 09/02 Q1024
LIPB - Bolzano(Civ/It-A, Italy
Dati ricevuti: 26/11/2022 11:50
Sereno
Sereno
 Vento da varies
Vento: varies 4 km/h
Temperatura: 9°C
P.to Rugiada: 0°C
Umidità: 54%
Barometro: 1028 hPa
Summary: Sereno
Visibility: greater than 10 km
2022/11/26 10:50 LIPB 261050Z VRB02KT CAVOK 09/M00 Q1028
 
LIVD - Bolzano-Dobbiaco, Italy
Dati ricevuti: 26/11/2022 11:55

 Vento da varies
Vento: varies 4 km/h
Temperatura: 0°C
P.to Rugiada: -3°C
Umidità: 80%
Barometro: 1028 hPa
2022/11/26 10:55 LIVD 261055Z AUTO VRB02KT //// 00/M03 Q1028
LIVE - Bolzano-Passo Resia, Italy
Dati ricevuti: 26/11/2022 11:55
Sereno
Sereno
 Vento da N
Vento: N 11 km/h
Temperatura: 2°C
Temperatura del Vento: -1°C
P.to Rugiada: -5°C
Umidità: 60%
Barometro: 1026 hPa
Summary: Sereno
Visibility: greater than 10 km
2022/11/26 10:55 LIVE 261055Z 01006KT CAVOK 02/M05 Q1026
 
LIMH - Aosta-Pian Rosa (mtn T, Italy
Dati ricevuti: 26/11/2022 11:55

 Vento da ENE
Vento: ENE 20 km/h
Temperatura: -10°C
Temperatura del Vento: -18°C
P.to Rugiada: -28°C
Umidità: 22%
Barometro: 1024 hPa
2022/11/26 10:55 LIMH 261055Z AUTO 06011KT //// M10/M28 Q1024
LIMZ - Cuneo/Levaldigi, Italy
Dati ricevuti: 26/11/2022 12:20
Sereno
Sereno
 Vento da E
Vento: E 9 km/h
Temperatura: 15°C
P.to Rugiada: -3°C
Umidità: 29%
Barometro: 1026 hPa
Clouds: Sereno
Visibility: 10 km
2022/11/26 11:20 LIMZ 261120Z AUTO 08005KT 010V110 9999 NCD 15/M03 Q1026
 
LIMK - Torino-Bric Della Croce, Italy
Dati ricevuti: 26/11/2022 11:55
Sereno
Sereno
 Vento da calm
Vento: Calma
Temperatura: 10°C
P.to Rugiada: -6°C
Umidità: 32%
Barometro: 1025 hPa
Summary: Sereno
Visibility: greater than 10 km
2022/11/26 10:55 LIMK 261055Z 00000KT CAVOK 10/M06 Q1025
LIMN - Novara-Cameri (it-Afb), Italy
Dati ricevuti: 25/11/2022 18:55
Non Attivo
Mist, Parz. nuvoloso
Mist, Parz. nuvoloso
 Vento da varies
Vento: varies 0 km/h
Temperatura: 5°C
P.to Rugiada: 5°C
Umidità: 100%
Barometro: 1019 hPa
Summary: Mist
Clouds: Parz. nuvoloso
Visibility: 3 km
2022/11/25 17:55 LIMN 251755Z /////KT 2500 BR NSC 05/05 Q1019
 
LIPA - Pordenone-Aviano (it/Us-Af, Italy
Dati ricevuti: 26/11/2022 11:55
Parz. nuvoloso
Parz. nuvoloso
 Vento da ESE
Vento: ESE 11 km/h
Temperatura: 15°C
P.to Rugiada: 3°C
Umidità: 45%
Barometro: 1026 hPa
Clouds: Parz. nuvoloso
Visibility: 10 km
Cloud details: Parz. nuvoloso 3658 m
2022/11/26 10:55 LIPA 261055Z 12006KT 9999 SCT120 15/03 Q1026
LIPI - Udine-Rivolto (it-Afb), Italy
Dati ricevuti: 26/11/2022 11:55
Sereno
Sereno
 Vento da NE
Vento: NE 13 km/h
Temperatura: 14°C
P.to Rugiada: 6°C
Umidità: 59%
Barometro: 1025 hPa
Summary: Sereno
Visibility: greater than 10 km
2022/11/26 10:55 LIPI 261055Z 05007KT CAVOK 14/06 Q1025
 
LIVO - Udine-Tarvisio, Italy
Dati ricevuti: 25/11/2022 18:55
Non Attivo
Nebbia, Nuvoloso
Nebbia, Nuvoloso
 Vento da calm
Vento: Calma
Temperatura: -1°C
P.to Rugiada: -3°C
Umidità: 86%
Barometro: 1018 hPa
Summary: Nebbia
Clouds: Molto nuvoloso
Visibility: 1 km
Cloud details: Molto nuvoloso 1524 m
2022/11/25 17:55 LIVO 251755Z 00000KT 0800 FG BKN050 M01/M03 Q1018
LIPQ - Trieste-Ronchi Dei Legionari, Italy
Dati ricevuti: 26/11/2022 12:20
Few Clouds
Few Clouds
 Vento da O
Vento: O 6 km/h
Temperatura: 13°C
P.to Rugiada: 7°C
Umidità: 67%
Barometro: 1026 hPa
Clouds: Few Clouds
Visibility: 10 km
Cloud details: Few Clouds 7010 m
2022/11/26 11:20 LIPQ 261120Z AUTO 28003KT 9999 FEW230/// 13/07 Q1026
 
LIVT - Trieste, Italy
Dati ricevuti: 26/11/2022 11:55

 Vento da ENE
Vento: ENE 20 km/h, Raffica: 39 km/h
Temperatura: 13°C
P.to Rugiada: 3°C
Umidità: 51%
Barometro: 1025 hPa
2022/11/26 10:55 LIVT 261055Z AUTO 07011G21KT 020V140 //// 13/03 Q1025
LIRQ - Firenze/Peretola, Italy
Dati ricevuti: 26/11/2022 12:20
Molto nuvoloso
Molto nuvoloso
 Vento da NNE
Vento: NNE 15 km/h, Raffica: 35 km/h
Temperatura: 14°C
P.to Rugiada: 7°C
Umidità: 63%
Barometro: 1023 hPa
Clouds: Molto nuvoloso
Visibility: 10 km
Cloud details: Molto nuvoloso 1219 m
2022/11/26 11:20 LIRQ 261120Z 02008G19KT 340V070 9999 BKN040 14/07 Q1023
 
LIPK - Forli (civ/It-Af, Italy
Dati ricevuti: 26/11/2022 11:50
Mist, Nuvoloso
Mist, Nuvoloso
 Vento da ONO
Vento: ONO 20 km/h
Temperatura: 10°C
Temperatura del Vento: 7°C
P.to Rugiada: 6°C
Umidità: 76%
Barometro: 1024 hPa
Summary: Mist
Clouds: Molto nuvoloso
Visibility: 5 km
Cloud details: Molto nuvoloso 914 m
2022/11/26 10:50 LIPK 261050Z 30011KT 5000 BR BKN030 10/06 Q1024
LIRS - Grosseto (it-Afb, Italy
Dati ricevuti: 26/11/2022 11:55
Few Clouds
Few Clouds
 Vento da NNE
Vento: NNE 41 km/h
Temperatura: 16°C
P.to Rugiada: 9°C
Umidità: 63%
Barometro: 1018 hPa
Clouds: Few Clouds
Visibility: 10 km
Cloud details: Few Clouds 914 m
2022/11/26 10:55 LIRS 261055Z 03022KT 9999 FEW030 16/09 Q1018
 
LIRP - Pisa (civ/It-Afb, Italy
Dati ricevuti: 26/11/2022 12:15
Few Clouds
Few Clouds
 Vento da NNE
Vento: NNE 20 km/h
Temperatura: 15°C
P.to Rugiada: 4°C
Umidità: 48%
Barometro: 1022 hPa
Clouds: Few Clouds
Visibility: 10 km
Cloud details: Few Clouds 2134 m
2022/11/26 11:15 LIRP 261115Z 03011KT 9999 FEW070 15/04 Q1022 NOSIG
LIVF - Frontone, Italy
Dati ricevuti: 26/11/2022 11:55
Pioviggine, Mist, Coperto
Pioviggine, Mist, Coperto
 Vento da NE
Vento: NE 7 km/h
Temperatura: 8°C
Temperatura del Vento: 7°C
P.to Rugiada: 8°C
Umidità: 100%
Barometro: 1020 hPa
Summary: Pioviggine, Mist
Clouds: Coperto
Visibility: 3 km
Cloud details: Coperto 152 m
2022/11/26 10:55 LIVF 261055Z 05004KT 3000 -RA BR OVC005 08/08 Q1020
 
LIPC - Cervia (it-Afb), Italy
Dati ricevuti: 26/11/2022 11:55
Parz. nuvoloso
Parz. nuvoloso
 Vento da NO
Vento: NO 20 km/h
Temperatura: 11°C
P.to Rugiada: 9°C
Umidità: 88%
Barometro: 1024 hPa
Clouds: Parz. nuvoloso
Visibility: 10 km
Cloud details: Parz. nuvoloso 914 m
2022/11/26 10:55 LIPC 261055Z 31011KT 9999 SCT030 11/09 Q1024
LIPR - Rimini (civ/It-A, Italy
Dati ricevuti: 26/11/2022 12:20
Molto nuvoloso
Molto nuvoloso
 Vento da NO
Vento: NO 24 km/h
Temperatura: 12°C
P.to Rugiada: 9°C
Umidità: 82%
Barometro: 1024 hPa
Clouds: Molto nuvoloso
Visibility: 8 km
Cloud details: Parz. nuvoloso 914 m
Molto nuvoloso 1829 m
2022/11/26 11:20 LIPR 261120Z 31013KT 8000 SCT030 BKN060 12/09 Q1024
 
LIRX - Monte Calamita, Italy
Dati ricevuti: 26/11/2022 11:55
Parz. nuvoloso
Parz. nuvoloso
 Vento da N
Vento: N 22 km/h
Temperatura: 12°C
P.to Rugiada: 8°C
Umidità: 77%
Barometro: 1017 hPa
Clouds: Parz. nuvoloso
Visibility: 10 km
Cloud details: Few Clouds 183 m
Parz. nuvoloso 1524 m
2022/11/26 10:55 LIRX 261055Z 36012KT 9999 FEW006 SCT050 12/08 Q1017
LIVM - Punta Marina/Rav, Italy
Dati ricevuti: 26/11/2022 11:55

 Vento da ENE
Vento: ENE 19 km/h
Temperatura: 9°C
Temperatura del Vento: 6°C
P.to Rugiada: 7°C
Umidità: 87%
Barometro: 1024 hPa
2022/11/26 10:55 LIVM 261055Z AUTO 07010KT //// 09/07 Q1024